sensor_id;sensor_type;location;lat;lon;timestamp;P1;durP1;ratioP1;P2;durP2;ratioP2
26989;SDS011;14537;47.788;11.858;2024-03-22T00:01:46;20.05;;;9.73;;
26989;SDS011;14537;47.788;11.858;2024-03-22T00:04:14;22.05;;;10.50;;
26989;SDS011;14537;47.788;11.858;2024-03-22T00:06:44;26.33;;;11.53;;
26989;SDS011;14537;47.788;11.858;2024-03-22T00:09:11;24.48;;;12.30;;
26989;SDS011;14537;47.788;11.858;2024-03-22T00:11:38;26.50;;;11.18;;
26989;SDS011;14537;47.788;11.858;2024-03-22T00:14:05;28.60;;;12.35;;
26989;SDS011;14537;47.788;11.858;2024-03-22T00:16:30;28.92;;;11.82;;
26989;SDS011;14537;47.788;11.858;2024-03-22T00:18:56;25.13;;;11.55;;
26989;SDS011;14537;47.788;11.858;2024-03-22T00:21:22;28.30;;;11.85;;
26989;SDS011;14537;47.788;11.858;2024-03-22T00:23:48;22.70;;;10.82;;
26989;SDS011;14537;47.788;11.858;2024-03-22T00:26:13;23.73;;;10.63;;
26989;SDS011;14537;47.788;11.858;2024-03-22T00:28:39;27.08;;;11.65;;
26989;SDS011;14537;47.788;11.858;2024-03-22T00:31:05;27.98;;;11.68;;
26989;SDS011;14537;47.788;11.858;2024-03-22T00:33:30;23.23;;;11.40;;
26989;SDS011;14537;47.788;11.858;2024-03-22T00:35:56;29.20;;;12.10;;
26989;SDS011;14537;47.788;11.858;2024-03-22T00:38:22;24.45;;;10.52;;
26989;SDS011;14537;47.788;11.858;2024-03-22T00:40:48;20.88;;;9.38;;
26989;SDS011;14537;47.788;11.858;2024-03-22T00:43:13;20.20;;;9.48;;
26989;SDS011;14537;47.788;11.858;2024-03-22T00:45:39;19.98;;;9.35;;
26989;SDS011;14537;47.788;11.858;2024-03-22T00:48:05;20.73;;;9.43;;
26989;SDS011;14537;47.788;11.858;2024-03-22T00:50:30;21.98;;;8.98;;
26989;SDS011;14537;47.788;11.858;2024-03-22T00:52:56;23.52;;;9.68;;
26989;SDS011;14537;47.788;11.858;2024-03-22T00:55:22;24.95;;;10.27;;
26989;SDS011;14537;47.788;11.858;2024-03-22T00:57:48;21.20;;;9.40;;
26989;SDS011;14537;47.788;11.858;2024-03-22T01:00:14;19.20;;;8.60;;
26989;SDS011;14537;47.788;11.858;2024-03-22T01:02:41;17.83;;;8.43;;
26989;SDS011;14537;47.788;11.858;2024-03-22T01:05:07;15.32;;;7.38;;
26989;SDS011;14537;47.788;11.858;2024-03-22T01:07:33;18.23;;;8.25;;
26989;SDS011;14537;47.788;11.858;2024-03-22T01:09:59;16.67;;;7.63;;
26989;SDS011;14537;47.788;11.858;2024-03-22T01:12:25;17.15;;;7.85;;
26989;SDS011;14537;47.788;11.858;2024-03-22T01:14:50;13.25;;;7.30;;
26989;SDS011;14537;47.788;11.858;2024-03-22T01:17:16;18.63;;;8.55;;
26989;SDS011;14537;47.788;11.858;2024-03-22T01:19:42;16.17;;;7.78;;
26989;SDS011;14537;47.788;11.858;2024-03-22T01:22:07;12.32;;;6.70;;
26989;SDS011;14537;47.788;11.858;2024-03-22T01:24:33;16.10;;;7.97;;
26989;SDS011;14537;47.788;11.858;2024-03-22T01:26:58;15.48;;;6.93;;
26989;SDS011;14537;47.788;11.858;2024-03-22T01:29:24;19.70;;;7.95;;
26989;SDS011;14537;47.788;11.858;2024-03-22T01:31:49;16.55;;;7.75;;
26989;SDS011;14537;47.788;11.858;2024-03-22T01:34:15;16.92;;;7.90;;
26989;SDS011;14537;47.788;11.858;2024-03-22T01:36:41;17.27;;;7.80;;
26989;SDS011;14537;47.788;11.858;2024-03-22T01:39:06;14.93;;;7.05;;
26989;SDS011;14537;47.788;11.858;2024-03-22T01:41:32;14.63;;;6.85;;
26989;SDS011;14537;47.788;11.858;2024-03-22T01:43:58;13.65;;;7.18;;
26989;SDS011;14537;47.788;11.858;2024-03-22T01:46:23;11.32;;;6.50;;
26989;SDS011;14537;47.788;11.858;2024-03-22T01:48:50;13.32;;;6.75;;
26989;SDS011;14537;47.788;11.858;2024-03-22T01:51:16;18.08;;;7.65;;
26989;SDS011;14537;47.788;11.858;2024-03-22T01:53:42;13.32;;;6.95;;
26989;SDS011;14537;47.788;11.858;2024-03-22T01:56:08;15.95;;;7.70;;
26989;SDS011;14537;47.788;11.858;2024-03-22T01:58:35;17.35;;;7.40;;
26989;SDS011;14537;47.788;11.858;2024-03-22T02:01:00;15.82;;;7.07;;
26989;SDS011;14537;47.788;11.858;2024-03-22T02:03:27;12.77;;;6.72;;
26989;SDS011;14537;47.788;11.858;2024-03-22T02:05:52;10.32;;;6.30;;
26989;SDS011;14537;47.788;11.858;2024-03-22T02:08:18;13.50;;;6.32;;
26989;SDS011;14537;47.788;11.858;2024-03-22T02:10:44;12.98;;;6.53;;
26989;SDS011;14537;47.788;11.858;2024-03-22T02:13:10;18.88;;;5.82;;
26989;SDS011;14537;47.788;11.858;2024-03-22T02:15:36;12.85;;;6.40;;
26989;SDS011;14537;47.788;11.858;2024-03-22T02:18:01;13.68;;;6.93;;
26989;SDS011;14537;47.788;11.858;2024-03-22T02:20:27;13.23;;;6.22;;
26989;SDS011;14537;47.788;11.858;2024-03-22T02:22:52;12.90;;;6.47;;
26989;SDS011;14537;47.788;11.858;2024-03-22T02:25:18;14.20;;;7.25;;
26989;SDS011;14537;47.788;11.858;2024-03-22T02:27:44;11.15;;;5.95;;
26989;SDS011;14537;47.788;11.858;2024-03-22T02:30:09;12.85;;;6.68;;
26989;SDS011;14537;47.788;11.858;2024-03-22T02:32:35;12.63;;;6.20;;
26989;SDS011;14537;47.788;11.858;2024-03-22T02:35:01;13.35;;;6.63;;
26989;SDS011;14537;47.788;11.858;2024-03-22T02:37:27;16.00;;;7.63;;
26989;SDS011;14537;47.788;11.858;2024-03-22T02:39:53;12.95;;;6.63;;
26989;SDS011;14537;47.788;11.858;2024-03-22T02:42:18;12.75;;;6.38;;
26989;SDS011;14537;47.788;11.858;2024-03-22T02:44:44;11.95;;;5.72;;
26989;SDS011;14537;47.788;11.858;2024-03-22T02:47:10;13.85;;;5.68;;
26989;SDS011;14537;47.788;11.858;2024-03-22T02:49:38;13.93;;;6.38;;
26989;SDS011;14537;47.788;11.858;2024-03-22T02:52:04;9.63;;;5.22;;
26989;SDS011;14537;47.788;11.858;2024-03-22T02:54:29;11.73;;;5.85;;
26989;SDS011;14537;47.788;11.858;2024-03-22T02:56:55;15.52;;;5.45;;
26989;SDS011;14537;47.788;11.858;2024-03-22T02:59:21;14.88;;;6.55;;
26989;SDS011;14537;47.788;11.858;2024-03-22T03:01:47;11.50;;;5.40;;
26989;SDS011;14537;47.788;11.858;2024-03-22T03:04:12;11.07;;;5.38;;
26989;SDS011;14537;47.788;11.858;2024-03-22T03:06:38;17.08;;;6.10;;
26989;SDS011;14537;47.788;11.858;2024-03-22T03:09:03;14.13;;;5.60;;
26989;SDS011;14537;47.788;11.858;2024-03-22T03:11:35;12.95;;;6.10;;
26989;SDS011;14537;47.788;11.858;2024-03-22T03:14:03;16.15;;;6.53;;
26989;SDS011;14537;47.788;11.858;2024-03-22T03:16:29;11.50;;;5.47;;
26989;SDS011;14537;47.788;11.858;2024-03-22T03:18:54;16.13;;;6.28;;
26989;SDS011;14537;47.788;11.858;2024-03-22T03:21:20;11.82;;;5.40;;
26989;SDS011;14537;47.788;11.858;2024-03-22T03:23:45;13.60;;;5.95;;
26989;SDS011;14537;47.788;11.858;2024-03-22T03:26:11;11.07;;;5.13;;
26989;SDS011;14537;47.788;11.858;2024-03-22T03:28:37;13.57;;;5.80;;
26989;SDS011;14537;47.788;11.858;2024-03-22T03:31:02;13.00;;;5.53;;
26989;SDS011;14537;47.788;11.858;2024-03-22T03:33:28;11.75;;;5.18;;
26989;SDS011;14537;47.788;11.858;2024-03-22T03:35:53;12.07;;;5.55;;
26989;SDS011;14537;47.788;11.858;2024-03-22T03:38:19;13.82;;;5.80;;
26989;SDS011;14537;47.788;11.858;2024-03-22T03:40:44;10.57;;;4.18;;
26989;SDS011;14537;47.788;11.858;2024-03-22T03:43:10;13.45;;;5.45;;
26989;SDS011;14537;47.788;11.858;2024-03-22T03:45:36;13.95;;;5.20;;
26989;SDS011;14537;47.788;11.858;2024-03-22T03:48:02;10.55;;;5.30;;
26989;SDS011;14537;47.788;11.858;2024-03-22T03:50:28;9.32;;;4.90;;
26989;SDS011;14537;47.788;11.858;2024-03-22T03:52:53;12.35;;;5.18;;
26989;SDS011;14537;47.788;11.858;2024-03-22T03:55:19;12.65;;;5.32;;
26989;SDS011;14537;47.788;11.858;2024-03-22T03:57:44;12.77;;;4.90;;
26989;SDS011;14537;47.788;11.858;2024-03-22T04:00:10;10.45;;;5.20;;
26989;SDS011;14537;47.788;11.858;2024-03-22T04:02:36;9.60;;;4.82;;
26989;SDS011;14537;47.788;11.858;2024-03-22T04:05:01;7.95;;;3.90;;
26989;SDS011;14537;47.788;11.858;2024-03-22T04:07:27;12.40;;;4.53;;
26989;SDS011;14537;47.788;11.858;2024-03-22T04:09:54;8.90;;;4.40;;
26989;SDS011;14537;47.788;11.858;2024-03-22T04:12:19;9.80;;;4.60;;
26989;SDS011;14537;47.788;11.858;2024-03-22T04:14:45;8.63;;;4.13;;
26989;SDS011;14537;47.788;11.858;2024-03-22T04:17:11;6.93;;;3.85;;
26989;SDS011;14537;47.788;11.858;2024-03-22T04:19:36;7.88;;;4.07;;
26989;SDS011;14537;47.788;11.858;2024-03-22T04:22:02;12.38;;;5.13;;
26989;SDS011;14537;47.788;11.858;2024-03-22T04:24:28;11.20;;;4.55;;
26989;SDS011;14537;47.788;11.858;2024-03-22T04:26:54;10.43;;;4.55;;
26989;SDS011;14537;47.788;11.858;2024-03-22T04:29:19;9.20;;;4.70;;
26989;SDS011;14537;47.788;11.858;2024-03-22T04:31:45;9.73;;;4.32;;
26989;SDS011;14537;47.788;11.858;2024-03-22T04:34:11;8.95;;;4.05;;
26989;SDS011;14537;47.788;11.858;2024-03-22T04:36:36;7.75;;;3.97;;
26989;SDS011;14537;47.788;11.858;2024-03-22T04:39:02;9.82;;;3.90;;
26989;SDS011;14537;47.788;11.858;2024-03-22T04:41:28;8.68;;;3.65;;
26989;SDS011;14537;47.788;11.858;2024-03-22T04:43:54;6.07;;;3.50;;
26989;SDS011;14537;47.788;11.858;2024-03-22T04:46:19;8.10;;;4.07;;
26989;SDS011;14537;47.788;11.858;2024-03-22T04:48:45;8.57;;;4.28;;
26989;SDS011;14537;47.788;11.858;2024-03-22T04:51:11;9.13;;;4.47;;
26989;SDS011;14537;47.788;11.858;2024-03-22T04:53:36;7.53;;;3.95;;
26989;SDS011;14537;47.788;11.858;2024-03-22T04:56:02;8.18;;;3.75;;
26989;SDS011;14537;47.788;11.858;2024-03-22T04:58:27;8.95;;;3.55;;
26989;SDS011;14537;47.788;11.858;2024-03-22T05:00:56;9.85;;;3.90;;
26989;SDS011;14537;47.788;11.858;2024-03-22T05:03:23;10.20;;;4.43;;
26989;SDS011;14537;47.788;11.858;2024-03-22T05:05:49;9.13;;;4.70;;
26989;SDS011;14537;47.788;11.858;2024-03-22T05:08:15;7.20;;;3.35;;
26989;SDS011;14537;47.788;11.858;2024-03-22T05:10:41;8.27;;;4.30;;
26989;SDS011;14537;47.788;11.858;2024-03-22T05:13:07;8.18;;;4.00;;
26989;SDS011;14537;47.788;11.858;2024-03-22T05:15:32;8.15;;;3.90;;
26989;SDS011;14537;47.788;11.858;2024-03-22T05:17:58;13.30;;;4.88;;
26989;SDS011;14537;47.788;11.858;2024-03-22T05:20:24;10.10;;;4.68;;
26989;SDS011;14537;47.788;11.858;2024-03-22T05:22:50;12.65;;;4.88;;
26989;SDS011;14537;47.788;11.858;2024-03-22T05:25:16;11.00;;;4.68;;
26989;SDS011;14537;47.788;11.858;2024-03-22T05:27:42;11.25;;;5.10;;
26989;SDS011;14537;47.788;11.858;2024-03-22T05:30:08;12.68;;;5.63;;
26989;SDS011;14537;47.788;11.858;2024-03-22T05:32:34;14.30;;;5.13;;
26989;SDS011;14537;47.788;11.858;2024-03-22T05:35:00;12.68;;;5.15;;
26989;SDS011;14537;47.788;11.858;2024-03-22T05:37:26;16.77;;;5.80;;
26989;SDS011;14537;47.788;11.858;2024-03-22T05:39:51;10.30;;;4.88;;
26989;SDS011;14537;47.788;11.858;2024-03-22T05:42:17;11.07;;;4.90;;
26989;SDS011;14537;47.788;11.858;2024-03-22T05:44:43;12.38;;;5.30;;
26989;SDS011;14537;47.788;11.858;2024-03-22T05:47:09;9.90;;;4.80;;
26989;SDS011;14537;47.788;11.858;2024-03-22T05:49:35;12.98;;;5.78;;
26989;SDS011;14537;47.788;11.858;2024-03-22T05:52:00;15.00;;;5.38;;
26989;SDS011;14537;47.788;11.858;2024-03-22T05:54:26;17.08;;;5.32;;
26989;SDS011;14537;47.788;11.858;2024-03-22T05:56:52;16.52;;;6.22;;
26989;SDS011;14537;47.788;11.858;2024-03-22T05:59:17;11.23;;;5.00;;
26989;SDS011;14537;47.788;11.858;2024-03-22T06:01:43;12.75;;;5.88;;
26989;SDS011;14537;47.788;11.858;2024-03-22T06:04:08;13.95;;;5.75;;
26989;SDS011;14537;47.788;11.858;2024-03-22T06:06:34;14.07;;;5.53;;
26989;SDS011;14537;47.788;11.858;2024-03-22T06:09:01;15.38;;;5.82;;
26989;SDS011;14537;47.788;11.858;2024-03-22T06:11:34;12.50;;;5.20;;
26989;SDS011;14537;47.788;11.858;2024-03-22T06:14:00;11.57;;;5.35;;
26989;SDS011;14537;47.788;11.858;2024-03-22T06:16:25;13.90;;;5.65;;
26989;SDS011;14537;47.788;11.858;2024-03-22T06:18:51;12.02;;;5.25;;
26989;SDS011;14537;47.788;11.858;2024-03-22T06:21:17;14.40;;;6.28;;
26989;SDS011;14537;47.788;11.858;2024-03-22T06:23:50;12.80;;;5.60;;
26989;SDS011;14537;47.788;11.858;2024-03-22T06:26:16;13.02;;;5.45;;
26989;SDS011;14537;47.788;11.858;2024-03-22T06:28:42;17.27;;;6.90;;
26989;SDS011;14537;47.788;11.858;2024-03-22T06:31:08;16.17;;;7.32;;
26989;SDS011;14537;47.788;11.858;2024-03-22T06:33:34;12.90;;;6.05;;
26989;SDS011;14537;47.788;11.858;2024-03-22T06:35:59;14.13;;;6.00;;
26989;SDS011;14537;47.788;11.858;2024-03-22T06:38:25;15.05;;;5.68;;
26989;SDS011;14537;47.788;11.858;2024-03-22T06:40:51;16.20;;;6.50;;
26989;SDS011;14537;47.788;11.858;2024-03-22T06:43:17;10.90;;;5.68;;
26989;SDS011;14537;47.788;11.858;2024-03-22T06:45:42;12.88;;;6.38;;
26989;SDS011;14537;47.788;11.858;2024-03-22T06:48:08;11.75;;;5.70;;
26989;SDS011;14537;47.788;11.858;2024-03-22T06:50:33;13.63;;;6.28;;
26989;SDS011;14537;47.788;11.858;2024-03-22T06:52:59;11.43;;;5.32;;
26989;SDS011;14537;47.788;11.858;2024-03-22T06:55:24;16.55;;;6.50;;
26989;SDS011;14537;47.788;11.858;2024-03-22T06:57:50;19.33;;;7.10;;
26989;SDS011;14537;47.788;11.858;2024-03-22T07:00:17;17.90;;;7.43;;
26989;SDS011;14537;47.788;11.858;2024-03-22T07:02:43;16.08;;;5.95;;
26989;SDS011;14537;47.788;11.858;2024-03-22T07:05:09;15.25;;;6.93;;
26989;SDS011;14537;47.788;11.858;2024-03-22T07:07:36;16.33;;;7.40;;
26989;SDS011;14537;47.788;11.858;2024-03-22T07:10:02;18.38;;;8.23;;
26989;SDS011;14537;47.788;11.858;2024-03-22T07:12:30;18.48;;;7.90;;
26989;SDS011;14537;47.788;11.858;2024-03-22T07:14:57;19.38;;;6.93;;
26989;SDS011;14537;47.788;11.858;2024-03-22T07:17:23;20.95;;;7.15;;
26989;SDS011;14537;47.788;11.858;2024-03-22T07:19:52;20.77;;;6.97;;
26989;SDS011;14537;47.788;11.858;2024-03-22T07:22:18;12.38;;;6.28;;
26989;SDS011;14537;47.788;11.858;2024-03-22T07:24:45;19.77;;;6.88;;
26989;SDS011;14537;47.788;11.858;2024-03-22T07:27:11;20.00;;;7.80;;
26989;SDS011;14537;47.788;11.858;2024-03-22T07:29:36;14.52;;;6.93;;
26989;SDS011;14537;47.788;11.858;2024-03-22T07:32:02;23.70;;;6.85;;
26989;SDS011;14537;47.788;11.858;2024-03-22T07:34:28;11.68;;;6.30;;
26989;SDS011;14537;47.788;11.858;2024-03-22T07:36:54;12.90;;;6.00;;
26989;SDS011;14537;47.788;11.858;2024-03-22T07:39:20;14.13;;;6.30;;
26989;SDS011;14537;47.788;11.858;2024-03-22T07:41:45;10.73;;;5.65;;
26989;SDS011;14537;47.788;11.858;2024-03-22T07:44:11;10.20;;;5.00;;
26989;SDS011;14537;47.788;11.858;2024-03-22T07:46:37;14.85;;;5.72;;
26989;SDS011;14537;47.788;11.858;2024-03-22T07:49:02;10.40;;;4.82;;
26989;SDS011;14537;47.788;11.858;2024-03-22T07:51:29;12.75;;;4.93;;
26989;SDS011;14537;47.788;11.858;2024-03-22T07:53:55;15.27;;;6.70;;
26989;SDS011;14537;47.788;11.858;2024-03-22T07:56:20;13.25;;;5.60;;
26989;SDS011;14537;47.788;11.858;2024-03-22T07:58:46;13.98;;;5.65;;
26989;SDS011;14537;47.788;11.858;2024-03-22T08:01:12;11.15;;;5.80;;
26989;SDS011;14537;47.788;11.858;2024-03-22T08:03:38;13.25;;;6.00;;
26989;SDS011;14537;47.788;11.858;2024-03-22T08:06:03;10.63;;;5.55;;
26989;SDS011;14537;47.788;11.858;2024-03-22T08:08:29;11.77;;;5.78;;
26989;SDS011;14537;47.788;11.858;2024-03-22T08:10:55;10.65;;;5.28;;
26989;SDS011;14537;47.788;11.858;2024-03-22T08:13:20;12.55;;;5.85;;
26989;SDS011;14537;47.788;11.858;2024-03-22T08:15:46;11.50;;;5.80;;
26989;SDS011;14537;47.788;11.858;2024-03-22T08:18:11;14.88;;;6.53;;
26989;SDS011;14537;47.788;11.858;2024-03-22T08:20:38;11.82;;;5.93;;
26989;SDS011;14537;47.788;11.858;2024-03-22T08:23:04;15.30;;;5.88;;
26989;SDS011;14537;47.788;11.858;2024-03-22T08:25:30;9.43;;;5.18;;
26989;SDS011;14537;47.788;11.858;2024-03-22T08:27:56;9.43;;;4.95;;
26989;SDS011;14537;47.788;11.858;2024-03-22T08:30:23;14.98;;;5.47;;
26989;SDS011;14537;47.788;11.858;2024-03-22T08:32:49;11.40;;;5.35;;
26989;SDS011;14537;47.788;11.858;2024-03-22T08:35:14;8.95;;;4.82;;
26989;SDS011;14537;47.788;11.858;2024-03-22T08:37:40;9.98;;;4.60;;
26989;SDS011;14537;47.788;11.858;2024-03-22T08:40:05;8.82;;;3.97;;
26989;SDS011;14537;47.788;11.858;2024-03-22T08:42:32;6.30;;;3.88;;
26989;SDS011;14537;47.788;11.858;2024-03-22T08:44:58;7.75;;;4.32;;
26989;SDS011;14537;47.788;11.858;2024-03-22T08:47:23;7.78;;;4.05;;
26989;SDS011;14537;47.788;11.858;2024-03-22T08:49:49;8.07;;;4.28;;
26989;SDS011;14537;47.788;11.858;2024-03-22T08:52:15;11.48;;;4.55;;
26989;SDS011;14537;47.788;11.858;2024-03-22T08:54:40;5.75;;;3.08;;
26989;SDS011;14537;47.788;11.858;2024-03-22T08:57:06;7.28;;;3.60;;
26989;SDS011;14537;47.788;11.858;2024-03-22T08:59:32;5.78;;;3.33;;
26989;SDS011;14537;47.788;11.858;2024-03-22T09:01:57;7.68;;;3.40;;
26989;SDS011;14537;47.788;11.858;2024-03-22T09:04:24;6.78;;;3.30;;
26989;SDS011;14537;47.788;11.858;2024-03-22T09:06:50;4.70;;;2.25;;
26989;SDS011;14537;47.788;11.858;2024-03-22T09:09:16;4.60;;;2.58;;
26989;SDS011;14537;47.788;11.858;2024-03-22T09:11:42;4.10;;;2.17;;
26989;SDS011;14537;47.788;11.858;2024-03-22T09:14:07;2.72;;;1.88;;
26989;SDS011;14537;47.788;11.858;2024-03-22T09:16:33;3.70;;;1.85;;
26989;SDS011;14537;47.788;11.858;2024-03-22T09:18:59;4.18;;;1.80;;
26989;SDS011;14537;47.788;11.858;2024-03-22T09:21:24;2.47;;;1.55;;
26989;SDS011;14537;47.788;11.858;2024-03-22T09:23:50;3.03;;;1.60;;
26989;SDS011;14537;47.788;11.858;2024-03-22T09:26:16;2.63;;;1.60;;
26989;SDS011;14537;47.788;11.858;2024-03-22T09:28:41;3.33;;;1.58;;
26989;SDS011;14537;47.788;11.858;2024-03-22T09:31:07;4.03;;;1.52;;
26989;SDS011;14537;47.788;11.858;2024-03-22T09:33:33;2.50;;;1.83;;
26989;SDS011;14537;47.788;11.858;2024-03-22T09:35:59;6.38;;;2.00;;
26989;SDS011;14537;47.788;11.858;2024-03-22T09:38:25;4.40;;;1.70;;
26989;SDS011;14537;47.788;11.858;2024-03-22T09:40:50;2.03;;;1.63;;
26989;SDS011;14537;47.788;11.858;2024-03-22T09:43:20;3.33;;;1.50;;
26989;SDS011;14537;47.788;11.858;2024-03-22T09:45:46;2.72;;;1.38;;
26989;SDS011;14537;47.788;11.858;2024-03-22T09:48:18;2.67;;;1.50;;
26989;SDS011;14537;47.788;11.858;2024-03-22T09:50:48;2.30;;;1.67;;
26989;SDS011;14537;47.788;11.858;2024-03-22T09:53:20;4.32;;;1.75;;
26989;SDS011;14537;47.788;11.858;2024-03-22T09:55:50;2.78;;;1.65;;
26989;SDS011;14537;47.788;11.858;2024-03-22T09:58:17;5.25;;;2.03;;
26989;SDS011;14537;47.788;11.858;2024-03-22T10:00:43;3.90;;;1.75;;
26989;SDS011;14537;47.788;11.858;2024-03-22T10:03:09;2.20;;;1.70;;
26989;SDS011;14537;47.788;11.858;2024-03-22T10:05:35;6.45;;;2.05;;
26989;SDS011;14537;47.788;11.858;2024-03-22T10:08:01;2.85;;;1.60;;
26989;SDS011;14537;47.788;11.858;2024-03-22T10:10:28;3.17;;;1.75;;
26989;SDS011;14537;47.788;11.858;2024-03-22T10:12:54;5.07;;;1.83;;
26989;SDS011;14537;47.788;11.858;2024-03-22T10:15:19;2.92;;;1.80;;
26989;SDS011;14537;47.788;11.858;2024-03-22T10:17:45;4.20;;;1.88;;
26989;SDS011;14537;47.788;11.858;2024-03-22T10:20:14;2.67;;;1.73;;
26989;SDS011;14537;47.788;11.858;2024-03-22T10:22:43;4.78;;;1.98;;
26989;SDS011;14537;47.788;11.858;2024-03-22T10:25:13;4.30;;;1.67;;
26989;SDS011;14537;47.788;11.858;2024-03-22T10:27:39;2.38;;;1.45;;
26989;SDS011;14537;47.788;11.858;2024-03-22T10:30:09;3.20;;;1.70;;
26989;SDS011;14537;47.788;11.858;2024-03-22T10:32:36;1.98;;;1.58;;
26989;SDS011;14537;47.788;11.858;2024-03-22T10:35:05;2.25;;;1.30;;
26989;SDS011;14537;47.788;11.858;2024-03-22T10:37:34;1.90;;;1.33;;
26989;SDS011;14537;47.788;11.858;2024-03-22T10:40:03;3.30;;;1.60;;
26989;SDS011;14537;47.788;11.858;2024-03-22T10:42:36;2.90;;;1.60;;
26989;SDS011;14537;47.788;11.858;2024-03-22T10:45:05;1.60;;;1.30;;
26989;SDS011;14537;47.788;11.858;2024-03-22T10:47:32;2.38;;;1.75;;
26989;SDS011;14537;47.788;11.858;2024-03-22T10:50:09;6.53;;;1.73;;
26989;SDS011;14537;47.788;11.858;2024-03-22T10:52:45;2.88;;;1.20;;
26989;SDS011;14537;47.788;11.858;2024-03-22T10:55:18;1.83;;;1.40;;
26989;SDS011;14537;47.788;11.858;2024-03-22T10:57:48;3.38;;;1.40;;
26989;SDS011;14537;47.788;11.858;2024-03-22T11:00:15;2.20;;;1.45;;
26989;SDS011;14537;47.788;11.858;2024-03-22T11:02:43;2.53;;;1.35;;
26989;SDS011;14537;47.788;11.858;2024-03-22T11:05:16;1.65;;;1.27;;
26989;SDS011;14537;47.788;11.858;2024-03-22T11:07:43;2.65;;;1.23;;
26989;SDS011;14537;47.788;11.858;2024-03-22T11:10:11;2.20;;;1.33;;
26989;SDS011;14537;47.788;11.858;2024-03-22T11:12:37;2.70;;;1.55;;
26989;SDS011;14537;47.788;11.858;2024-03-22T11:15:06;2.90;;;1.58;;
26989;SDS011;14537;47.788;11.858;2024-03-22T11:17:35;3.65;;;1.40;;
26989;SDS011;14537;47.788;11.858;2024-03-22T11:20:02;1.65;;;1.17;;
26989;SDS011;14537;47.788;11.858;2024-03-22T11:22:27;2.40;;;1.30;;
26989;SDS011;14537;47.788;11.858;2024-03-22T11:24:53;2.05;;;1.20;;
26989;SDS011;14537;47.788;11.858;2024-03-22T11:27:19;1.20;;;1.00;;
26989;SDS011;14537;47.788;11.858;2024-03-22T11:29:45;2.05;;;1.40;;
26989;SDS011;14537;47.788;11.858;2024-03-22T11:32:14;3.35;;;1.27;;
26989;SDS011;14537;47.788;11.858;2024-03-22T11:34:40;3.45;;;1.73;;
26989;SDS011;14537;47.788;11.858;2024-03-22T11:37:06;4.43;;;1.27;;
26989;SDS011;14537;47.788;11.858;2024-03-22T11:39:35;1.00;;;0.90;;
26989;SDS011;14537;47.788;11.858;2024-03-22T11:42:02;2.60;;;1.30;;
26989;SDS011;14537;47.788;11.858;2024-03-22T11:44:30;1.63;;;1.05;;
26989;SDS011;14537;47.788;11.858;2024-03-22T11:46:56;1.73;;;1.30;;
26989;SDS011;14537;47.788;11.858;2024-03-22T11:49:22;2.28;;;1.17;;
26989;SDS011;14537;47.788;11.858;2024-03-22T11:51:48;1.65;;;1.23;;
26989;SDS011;14537;47.788;11.858;2024-03-22T11:54:13;1.77;;;1.10;;
26989;SDS011;14537;47.788;11.858;2024-03-22T11:56:39;2.13;;;1.20;;
26989;SDS011;14537;47.788;11.858;2024-03-22T11:59:06;4.00;;;1.33;;
26989;SDS011;14537;47.788;11.858;2024-03-22T12:01:32;5.10;;;1.27;;
26989;SDS011;14537;47.788;11.858;2024-03-22T12:03:58;1.75;;;1.10;;
26989;SDS011;14537;47.788;11.858;2024-03-22T12:06:24;4.15;;;1.05;;
26989;SDS011;14537;47.788;11.858;2024-03-22T12:08:50;2.13;;;1.25;;
26989;SDS011;14537;47.788;11.858;2024-03-22T12:11:16;1.83;;;0.98;;
26989;SDS011;14537;47.788;11.858;2024-03-22T12:13:41;3.45;;;1.30;;
26989;SDS011;14537;47.788;11.858;2024-03-22T12:16:07;3.50;;;1.15;;
26989;SDS011;14537;47.788;11.858;2024-03-22T12:18:33;2.70;;;0.98;;
26989;SDS011;14537;47.788;11.858;2024-03-22T12:20:59;1.15;;;0.85;;
26989;SDS011;14537;47.788;11.858;2024-03-22T12:23:25;2.03;;;1.25;;
26989;SDS011;14537;47.788;11.858;2024-03-22T12:25:51;1.33;;;0.90;;
26989;SDS011;14537;47.788;11.858;2024-03-22T12:28:17;4.00;;;0.90;;
26989;SDS011;14537;47.788;11.858;2024-03-22T12:30:44;4.88;;;1.05;;
26989;SDS011;14537;47.788;11.858;2024-03-22T12:33:09;1.00;;;0.90;;
26989;SDS011;14537;47.788;11.858;2024-03-22T12:35:38;1.88;;;1.00;;
26989;SDS011;14537;47.788;11.858;2024-03-22T12:38:05;3.58;;;1.00;;
26989;SDS011;14537;47.788;11.858;2024-03-22T12:40:30;3.55;;;1.10;;
26989;SDS011;14537;47.788;11.858;2024-03-22T12:42:57;1.50;;;0.77;;
26989;SDS011;14537;47.788;11.858;2024-03-22T12:45:23;2.78;;;1.52;;
26989;SDS011;14537;47.788;11.858;2024-03-22T12:47:49;7.15;;;1.20;;
26989;SDS011;14537;47.788;11.858;2024-03-22T12:50:15;1.80;;;0.90;;
26989;SDS011;14537;47.788;11.858;2024-03-22T12:52:40;2.35;;;0.90;;
26989;SDS011;14537;47.788;11.858;2024-03-22T12:55:09;1.30;;;1.00;;
26989;SDS011;14537;47.788;11.858;2024-03-22T12:57:34;1.58;;;1.00;;
26989;SDS011;14537;47.788;11.858;2024-03-22T13:00:00;1.75;;;1.00;;
26989;SDS011;14537;47.788;11.858;2024-03-22T13:02:26;2.47;;;1.00;;
26989;SDS011;14537;47.788;11.858;2024-03-22T13:04:52;4.55;;;1.15;;
26989;SDS011;14537;47.788;11.858;2024-03-22T13:07:21;2.55;;;0.90;;
26989;SDS011;14537;47.788;11.858;2024-03-22T13:09:47;2.22;;;1.13;;
26989;SDS011;14537;47.788;11.858;2024-03-22T13:12:13;1.92;;;1.10;;
26989;SDS011;14537;47.788;11.858;2024-03-22T13:14:38;1.17;;;0.85;;
26989;SDS011;14537;47.788;11.858;2024-03-22T13:17:04;1.40;;;0.95;;
26989;SDS011;14537;47.788;11.858;2024-03-22T13:19:29;1.33;;;1.02;;
26989;SDS011;14537;47.788;11.858;2024-03-22T13:21:55;3.40;;;0.90;;
26989;SDS011;14537;47.788;11.858;2024-03-22T13:24:21;2.13;;;1.02;;
26989;SDS011;14537;47.788;11.858;2024-03-22T13:26:46;1.38;;;1.00;;
26989;SDS011;14537;47.788;11.858;2024-03-22T13:29:12;2.05;;;0.98;;
26989;SDS011;14537;47.788;11.858;2024-03-22T13:31:39;2.35;;;0.90;;
26989;SDS011;14537;47.788;11.858;2024-03-22T13:34:04;0.95;;;0.90;;
26989;SDS011;14537;47.788;11.858;2024-03-22T13:36:30;1.77;;;0.88;;
26989;SDS011;14537;47.788;11.858;2024-03-22T13:38:57;3.08;;;1.05;;
26989;SDS011;14537;47.788;11.858;2024-03-22T13:41:24;2.58;;;0.98;;
26989;SDS011;14537;47.788;11.858;2024-03-22T13:43:49;0.82;;;0.70;;
26989;SDS011;14537;47.788;11.858;2024-03-22T13:46:15;1.67;;;1.00;;
26989;SDS011;14537;47.788;11.858;2024-03-22T13:48:42;1.95;;;0.85;;
26989;SDS011;14537;47.788;11.858;2024-03-22T13:51:08;2.05;;;1.20;;
26989;SDS011;14537;47.788;11.858;2024-03-22T13:53:34;2.15;;;1.15;;
26989;SDS011;14537;47.788;11.858;2024-03-22T13:56:00;3.13;;;1.00;;
26989;SDS011;14537;47.788;11.858;2024-03-22T13:58:26;2.63;;;0.90;;
26989;SDS011;14537;47.788;11.858;2024-03-22T14:00:52;3.85;;;1.25;;
26989;SDS011;14537;47.788;11.858;2024-03-22T14:03:18;1.00;;;0.73;;
26989;SDS011;14537;47.788;11.858;2024-03-22T14:05:44;1.25;;;0.80;;
26989;SDS011;14537;47.788;11.858;2024-03-22T14:08:09;2.00;;;1.00;;
26989;SDS011;14537;47.788;11.858;2024-03-22T14:10:35;3.42;;;1.05;;
26989;SDS011;14537;47.788;11.858;2024-03-22T14:13:01;1.65;;;1.20;;
26989;SDS011;14537;47.788;11.858;2024-03-22T14:15:27;2.60;;;0.88;;
26989;SDS011;14537;47.788;11.858;2024-03-22T14:17:56;2.13;;;0.90;;
26989;SDS011;14537;47.788;11.858;2024-03-22T14:20:23;3.88;;;1.73;;
26989;SDS011;14537;47.788;11.858;2024-03-22T14:22:49;3.72;;;1.70;;